Time;durP1;ratioP1;P1;durP2;ratioP2;P2;SDS_P1;SDS_P2;PMS_P1;PMS_P2;Temp;Humidity;BMP_temperature;BMP_pressure;BME280_temperature;BME280_humidity;BME280_pressure;Samples;Min_cycle;Max_cycle;Signal;HPM_P1;HPM_P2
2024/03/20 00:01:37;;;;;;;10.10;6.13;;;5.10;99.90;;;;;;4984651;28;20105;-86
2024/03/20 00:04:04;;;;;;;9.47;6.30;;;5.10;99.90;;;;;;4984919;28;20049;-86
2024/03/20 00:06:33;;;;;;;12.53;7.00;;;5.00;99.90;;;;;;4984823;28;20144;-86
2024/03/20 00:09:00;;;;;;;11.87;5.93;;;5.00;99.90;;;;;;4985378;28;20031;-87
2024/03/20 00:11:26;;;;;;;9.67;5.87;;;5.00;99.90;;;;;;4984571;28;20030;-87
2024/03/20 00:13:52;;;;;;;8.57;6.10;;;4.90;99.90;;;;;;4982914;28;20494;-87
2024/03/20 00:16:18;;;;;;;9.37;6.50;;;4.90;99.90;;;;;;4983244;28;20041;-86
2024/03/20 00:18:43;;;;;;;12.87;6.80;;;4.90;99.90;;;;;;4984493;28;20030;-87
2024/03/20 00:21:09;;;;;;;13.80;6.37;;;4.90;99.90;;;;;;4984873;28;20021;-87
2024/03/20 00:23:34;;;;;;;13.90;7.17;;;4.80;99.90;;;;;;4984585;28;20037;-87
2024/03/20 00:26:00;;;;;;;12.37;6.73;;;4.80;99.90;;;;;;4997480;28;20129;-87
2024/03/20 00:28:26;;;;;;;10.50;6.60;;;4.80;99.90;;;;;;4984174;28;20117;-87
2024/03/20 00:30:52;;;;;;;11.37;6.93;;;4.80;99.90;;;;;;4985182;28;20030;-86
2024/03/20 00:33:17;;;;;;;14.33;7.07;;;4.80;99.90;;;;;;4985571;28;20033;-87
2024/03/20 00:35:43;;;;;;;14.63;6.90;;;4.80;99.90;;;;;;4983722;28;20030;-87
2024/03/20 00:38:08;;;;;;;16.77;8.07;;;4.70;99.90;;;;;;4984413;28;20090;-87
2024/03/20 00:40:34;;;;;;;10.83;6.70;;;4.70;99.90;;;;;;4984344;28;20026;-87
2024/03/20 00:42:59;;;;;;;13.53;6.47;;;4.70;99.90;;;;;;4984368;28;20077;-88
2024/03/20 00:45:27;;;;;;;12.13;7.07;;;4.60;99.90;;;;;;4983879;28;20124;-87
2024/03/20 00:47:53;;;;;;;11.60;6.70;;;4.60;99.90;;;;;;4984326;28;20022;-87
2024/03/20 00:50:19;;;;;;;11.30;6.97;;;4.60;99.90;;;;;;4984045;28;20029;-86
2024/03/20 00:52:44;;;;;;;11.00;6.40;;;4.60;99.90;;;;;;4984161;28;20003;-86
2024/03/20 00:55:10;;;;;;;11.30;7.50;;;4.50;99.90;;;;;;4983676;28;20652;-87
2024/03/20 00:57:36;;;;;;;14.60;7.00;;;4.50;99.90;;;;;;4983090;28;20451;-86
2024/03/20 01:00:03;;;;;;;10.63;7.00;;;4.50;99.90;;;;;;4984392;28;20026;-87
2024/03/20 01:02:29;;;;;;;13.00;7.37;;;4.50;99.90;;;;;;4983776;28;20034;-86
2024/03/20 01:04:54;;;;;;;13.20;6.90;;;4.50;99.90;;;;;;4983062;28;20544;-87
2024/03/20 01:07:20;;;;;;;12.57;7.10;;;4.40;99.90;;;;;;4984412;28;20850;-88
2024/03/20 01:09:45;;;;;;;13.43;7.23;;;4.40;99.90;;;;;;4984341;28;20388;-86
2024/03/20 01:12:11;;;;;;;13.53;7.13;;;4.40;99.90;;;;;;4983033;28;20037;-86
2024/03/20 01:14:36;;;;;;;13.40;7.93;;;4.40;99.90;;;;;;4983810;28;20030;-86
2024/03/20 01:17:02;;;;;;;18.30;8.23;;;4.40;99.90;;;;;;4983213;28;20090;-86
2024/03/20 01:19:28;;;;;;;14.60;7.47;;;4.30;99.90;;;;;;4984931;28;20066;-86
2024/03/20 01:21:53;;;;;;;16.10;7.73;;;4.30;99.90;;;;;;4986264;28;20027;-86
2024/03/20 01:24:19;;;;;;;16.90;6.77;;;4.30;99.90;;;;;;4986494;28;20014;-86
2024/03/20 01:26:44;;;;;;;18.17;6.90;;;4.20;99.90;;;;;;4984726;28;20026;-86
2024/03/20 01:29:10;;;;;;;20.63;7.33;;;4.20;99.90;;;;;;4982768;28;20021;-87
2024/03/20 01:31:35;;;;;;;11.53;7.30;;;4.20;99.90;;;;;;4983458;28;20022;-86
2024/03/20 01:34:01;;;;;;;13.13;7.73;;;4.20;99.90;;;;;;4982885;28;20030;-88
2024/03/20 01:36:27;;;;;;;12.30;7.27;;;4.10;99.90;;;;;;4983424;28;20482;-86
2024/03/20 01:38:52;;;;;;;13.70;8.50;;;4.10;99.90;;;;;;4983802;28;20387;-86
2024/03/20 01:41:18;;;;;;;13.63;8.30;;;4.10;99.90;;;;;;4983184;28;20042;-86
2024/03/20 01:43:53;;;;;;;13.47;8.33;;;4.00;99.90;;;;;;4983717;28;20109;-86
2024/03/20 01:46:29;;;;;;;12.43;8.57;;;4.00;99.90;;;;;;4982840;28;20114;-86
2024/03/20 01:48:55;;;;;;;15.60;8.80;;;4.00;99.90;;;;;;4982820;28;20037;-86
2024/03/20 01:51:21;;;;;;;14.97;8.30;;;4.00;99.90;;;;;;4983053;28;20030;-86
2024/03/20 01:53:47;;;;;;;12.23;8.27;;;4.00;99.90;;;;;;4982967;28;20038;-87
2024/03/20 01:56:12;;;;;;;13.67;8.40;;;3.90;99.90;;;;;;4982112;28;21428;-87
2024/03/20 01:58:38;;;;;;;13.07;8.73;;;3.90;99.90;;;;;;4983033;28;20030;-87
2024/03/20 02:01:04;;;;;;;15.87;8.83;;;3.90;99.90;;;;;;4982275;28;20033;-86
2024/03/20 02:03:30;;;;;;;12.23;8.10;;;3.90;99.90;;;;;;4981460;28;20031;-86
2024/03/20 02:05:55;;;;;;;12.77;8.70;;;3.80;99.90;;;;;;4981752;28;20137;-86
2024/03/20 02:08:21;;;;;;;14.73;8.07;;;3.80;99.90;;;;;;4983342;28;20569;-86
2024/03/20 02:10:47;;;;;;;12.77;8.07;;;3.80;99.90;;;;;;4982253;28;20026;-86
2024/03/20 02:13:12;;;;;;;13.67;9.07;;;3.80;99.90;;;;;;4982818;28;20030;-86
2024/03/20 02:15:38;;;;;;;12.90;8.63;;;3.70;99.90;;;;;;4981637;28;20080;-86
2024/03/20 02:18:04;;;;;;;13.77;8.90;;;3.70;99.90;;;;;;4982243;28;20031;-86
2024/03/20 02:20:30;;;;;;;12.47;8.47;;;3.70;99.90;;;;;;4982659;28;20054;-86
2024/03/20 02:22:58;;;;;;;12.93;7.97;;;3.60;99.90;;;;;;4982596;28;20442;-86
2024/03/20 02:25:30;;;;;;;12.73;8.33;;;3.60;99.90;;;;;;4982924;28;20498;-86
2024/03/20 02:27:57;;;;;;;13.87;8.50;;;3.60;99.90;;;;;;4984063;28;20041;-87
2024/03/20 02:30:23;;;;;;;12.30;7.70;;;3.60;99.90;;;;;;4997498;28;20018;-86
2024/03/20 02:32:49;;;;;;;12.90;8.33;;;3.50;99.90;;;;;;4981936;28;20856;-86
2024/03/20 02:35:15;;;;;;;12.50;7.87;;;3.50;99.90;;;;;;4981281;28;20022;-86
2024/03/20 02:37:41;;;;;;;11.67;8.10;;;3.50;99.90;;;;;;4996630;28;20029;-86
2024/03/20 02:40:07;;;;;;;15.13;8.20;;;3.40;99.90;;;;;;4982155;28;20026;-86
2024/03/20 02:42:33;;;;;;;14.60;8.67;;;3.40;99.90;;;;;;4981750;28;20113;-86
2024/03/20 02:44:59;;;;;;;17.13;7.73;;;3.40;99.90;;;;;;4981913;28;20034;-86
2024/03/20 02:47:24;;;;;;;16.10;7.93;;;3.40;99.90;;;;;;4982042;28;20029;-86
2024/03/20 02:49:52;;;;;;;14.50;7.93;;;3.40;99.90;;;;;;4982318;28;20105;-87
2024/03/20 02:52:21;;;;;;;11.20;7.47;;;3.30;99.90;;;;;;4981406;28;20521;-86
2024/03/20 02:54:47;;;;;;;12.60;8.00;;;3.30;99.90;;;;;;4981678;28;20027;-86
2024/03/20 02:57:12;;;;;;;12.63;7.63;;;3.30;99.90;;;;;;4981792;28;20869;-86
2024/03/20 02:59:38;;;;;;;17.20;7.10;;;3.30;99.90;;;;;;4982036;28;20138;-86
2024/03/20 03:02:04;;;;;;;16.07;8.40;;;3.30;99.90;;;;;;4982527;28;20064;-86
2024/03/20 03:04:29;;;;;;;12.23;7.77;;;3.20;99.90;;;;;;4981404;28;20034;-86
2024/03/20 03:06:55;;;;;;;10.40;7.30;;;3.20;99.90;;;;;;4981295;28;20026;-86
2024/03/20 03:09:21;;;;;;;13.87;7.50;;;3.20;99.90;;;;;;4981263;28;20080;-86
2024/03/20 03:11:49;;;;;;;11.53;7.77;;;3.20;99.90;;;;;;4982300;28;20427;-86
2024/03/20 03:14:16;;;;;;;11.70;7.50;;;3.10;99.90;;;;;;5001096;28;20398;-87
2024/03/20 03:16:41;;;;;;;13.47;7.17;;;3.10;99.90;;;;;;4999859;28;20031;-86
2024/03/20 03:19:09;;;;;;;12.77;7.23;;;3.10;99.90;;;;;;4985436;28;20031;-86
2024/03/20 03:21:35;;;;;;;10.83;7.03;;;3.10;99.90;;;;;;4985715;28;20034;-87
2024/03/20 03:24:05;;;;;;;12.57;8.27;;;3.10;99.90;;;;;;4985970;28;20550;-86
2024/03/20 03:26:34;;;;;;;13.13;7.00;;;3.10;99.90;;;;;;4985522;28;20418;-86
2024/03/20 03:29:00;;;;;;;11.73;6.63;;;3.10;99.90;;;;;;4985721;28;20137;-87
2024/03/20 03:31:26;;;;;;;15.40;7.33;;;3.00;99.90;;;;;;4986077;28;20110;-86
2024/03/20 03:33:52;;;;;;;8.73;6.20;;;3.00;99.90;;;;;;4985879;28;20038;-86
2024/03/20 03:36:17;;;;;;;13.33;6.43;;;3.00;99.90;;;;;;4986125;28;20026;-86
2024/03/20 03:38:43;;;;;;;10.90;6.53;;;3.00;99.90;;;;;;4985785;28;20026;-86
2024/03/20 03:41:08;;;;;;;11.00;7.03;;;3.00;99.90;;;;;;4985268;28;20126;-86
2024/03/20 03:43:34;;;;;;;10.27;6.57;;;2.90;99.90;;;;;;4983066;28;20117;-86
2024/03/20 03:45:59;;;;;;;12.37;6.90;;;2.90;99.90;;;;;;4983131;28;20102;-86
2024/03/20 03:48:29;;;;;;;8.43;6.33;;;2.90;99.90;;;;;;4985480;28;20030;-86
2024/03/20 03:50:55;;;;;;;13.37;6.73;;;2.90;99.90;;;;;;4985144;28;20030;-86
2024/03/20 03:53:20;;;;;;;12.93;6.53;;;2.90;99.90;;;;;;4985177;28;20034;-85
2024/03/20 03:55:46;;;;;;;9.40;6.13;;;2.80;99.90;;;;;;4984788;28;20081;-86
2024/03/20 03:58:12;;;;;;;9.63;6.43;;;2.80;99.90;;;;;;4985023;28;20045;-86
2024/03/20 04:00:38;;;;;;;11.43;5.70;;;2.80;99.90;;;;;;4986036;28;20905;-86
2024/03/20 04:03:04;;;;;;;11.00;5.93;;;2.80;99.90;;;;;;4989162;28;20117;-86
2024/03/20 04:05:30;;;;;;;9.20;5.93;;;2.80;99.90;;;;;;4983168;28;20038;-86
2024/03/20 04:07:56;;;;;;;8.57;5.90;;;2.80;99.90;;;;;;4984905;28;20019;-86
2024/03/20 04:10:21;;;;;;;11.43;5.53;;;2.80;99.90;;;;;;4985124;28;20030;-86
2024/03/20 04:12:47;;;;;;;14.63;6.63;;;2.70;99.90;;;;;;4983768;28;21398;-86
2024/03/20 04:15:13;;;;;;;7.03;5.73;;;2.70;99.90;;;;;;4982332;28;20033;-86
2024/03/20 04:17:40;;;;;;;10.53;6.00;;;2.70;99.90;;;;;;4983346;28;20096;-86
2024/03/20 04:20:07;;;;;;;9.33;6.00;;;2.70;99.90;;;;;;4986069;28;20042;-86
2024/03/20 04:22:33;;;;;;;14.23;5.70;;;2.60;99.90;;;;;;4987814;28;20030;-86
2024/03/20 04:24:58;;;;;;;13.30;5.97;;;2.60;99.90;;;;;;4983560;28;20022;-86
2024/03/20 04:27:25;;;;;;;8.37;5.77;;;2.60;99.90;;;;;;4984425;28;20026;-86
2024/03/20 04:29:51;;;;;;;12.57;6.17;;;2.50;99.90;;;;;;4983674;28;20578;-86
2024/03/20 04:32:19;;;;;;;9.53;5.63;;;2.50;99.90;;;;;;4984619;28;20275;-86
2024/03/20 04:34:44;;;;;;;10.70;5.43;;;2.50;99.90;;;;;;4984101;28;20031;-87
2024/03/20 04:37:10;;;;;;;7.90;5.13;;;2.40;99.90;;;;;;4999759;28;20038;-86
2024/03/20 04:39:35;;;;;;;9.70;5.70;;;2.40;99.90;;;;;;4983092;28;20030;-86
2024/03/20 04:42:02;;;;;;;8.37;5.23;;;2.40;99.90;;;;;;4984332;28;20466;-86
2024/03/20 04:44:28;;;;;;;8.23;5.50;;;2.40;99.90;;;;;;4984274;28;20866;-86
2024/03/20 04:46:54;;;;;;;9.50;5.30;;;2.40;99.90;;;;;;4998551;28;20033;-86
2024/03/20 04:49:19;;;;;;;7.80;4.80;;;2.40;99.90;;;;;;4998334;28;20029;-87
2024/03/20 04:51:45;;;;;;;12.47;5.13;;;2.40;99.90;;;;;;4984369;28;20019;-86
2024/03/20 04:54:13;;;;;;;11.70;6.10;;;2.40;99.90;;;;;;4985761;28;20157;-86
2024/03/20 04:56:38;;;;;;;10.57;5.70;;;2.50;99.90;;;;;;4986456;28;20030;-86
2024/03/20 04:59:04;;;;;;;11.10;5.10;;;2.50;99.90;;;;;;4985692;28;20076;-87
2024/03/20 05:01:29;;;;;;;10.90;5.03;;;2.40;99.90;;;;;;4983047;28;20030;-86
2024/03/20 05:03:55;;;;;;;9.60;5.50;;;2.40;99.90;;;;;;4983840;28;20046;-86
2024/03/20 05:06:21;;;;;;;13.27;5.00;;;2.40;99.90;;;;;;4983400;28;20045;-86
2024/03/20 05:08:46;;;;;;;14.23;5.50;;;2.40;99.90;;;;;;4983571;28;20022;-86
2024/03/20 05:11:12;;;;;;;9.47;4.73;;;2.40;99.90;;;;;;4983839;28;20107;-86
2024/03/20 05:13:37;;;;;;;7.50;4.40;;;2.40;99.90;;;;;;4983051;28;20054;-86
2024/03/20 05:16:08;;;;;;;12.90;4.50;;;2.30;99.90;;;;;;4981622;28;20372;-86
2024/03/20 05:18:33;;;;;;;11.87;4.97;;;2.30;99.90;;;;;;4982581;28;20061;-87
2024/03/20 05:20:59;;;;;;;10.97;5.50;;;2.30;99.90;;;;;;4996375;28;20149;-86
2024/03/20 05:23:24;;;;;;;9.70;4.97;;;2.30;99.90;;;;;;4984227;28;20022;-87
2024/03/20 05:26:00;;;;;;;10.67;5.40;;;2.30;99.90;;;;;;4982386;28;20038;-87
2024/03/20 05:28:26;;;;;;;11.57;6.93;;;2.30;99.90;;;;;;4982075;28;20033;-88
2024/03/20 05:30:52;;;;;;;13.77;5.87;;;2.20;99.90;;;;;;4994805;28;20117;-87
2024/03/20 05:33:18;;;;;;;16.17;5.40;;;2.30;99.90;;;;;;4981339;28;20398;-87
2024/03/20 05:35:44;;;;;;;8.67;4.60;;;2.30;99.90;;;;;;4980220;28;20805;-86
2024/03/20 05:38:10;;;;;;;10.73;5.60;;;2.20;99.90;;;;;;4982732;28;20038;-87
2024/03/20 05:40:37;;;;;;;11.17;4.73;;;2.20;99.90;;;;;;4981364;28;20037;-87
2024/03/20 05:43:04;;;;;;;8.67;5.23;;;2.20;99.90;;;;;;4981299;28;21092;-87
2024/03/20 05:45:30;;;;;;;15.97;5.10;;;2.30;99.90;;;;;;4991133;28;20038;-87
2024/03/20 05:47:55;;;;;;;19.13;7.07;;;2.30;99.90;;;;;;4981930;28;20033;-87
2024/03/20 05:50:21;;;;;;;20.70;6.77;;;2.30;99.90;;;;;;4979992;28;20061;-89
2024/03/20 05:52:47;;;;;;;19.43;6.03;;;2.30;99.90;;;;;;4981240;28;20042;-88
2024/03/20 05:55:14;;;;;;;20.13;6.17;;;2.30;99.90;;;;;;4994607;28;20030;-88
2024/03/20 05:57:40;;;;;;;18.73;7.80;;;2.30;99.90;;;;;;4980513;28;20118;-88
2024/03/20 06:00:14;;;;;;;21.60;8.07;;;2.40;99.90;;;;;;4981592;28;20030;-88
2024/03/20 06:02:40;;;;;;;22.80;8.10;;;2.40;99.90;;;;;;4993190;28;20072;-88
2024/03/20 06:05:06;;;;;;;34.10;8.20;;;2.40;99.90;;;;;;4981871;28;20505;-87
2024/03/20 06:07:32;;;;;;;22.17;8.63;;;2.40;99.90;;;;;;4982231;28;20030;-88
2024/03/20 06:09:57;;;;;;;24.23;7.27;;;2.50;99.90;;;;;;4981505;28;20029;-88
2024/03/20 06:12:23;;;;;;;15.93;5.93;;;2.60;99.90;;;;;;4981489;28;20140;-87
2024/03/20 06:14:48;;;;;;;9.30;5.10;;;2.60;99.90;;;;;;4980794;28;20033;-87
2024/03/20 06:17:15;;;;;;;10.33;5.23;;;2.60;99.90;;;;;;4981680;28;20088;-85
2024/03/20 06:19:41;;;;;;;11.97;5.00;;;2.70;99.90;;;;;;4985178;28;20045;-87
2024/03/20 06:22:06;;;;;;;10.50;5.97;;;2.80;99.90;;;;;;4982057;28;20033;-86
2024/03/20 06:24:32;;;;;;;15.33;6.00;;;2.90;99.90;;;;;;4986532;28;20027;-85
2024/03/20 06:26:57;;;;;;;14.23;5.70;;;2.90;99.90;;;;;;4983738;28;20064;-85
2024/03/20 06:29:23;;;;;;;8.80;4.70;;;3.00;99.90;;;;;;4984101;28;20029;-84
2024/03/20 06:31:49;;;;;;;15.90;5.40;;;3.10;99.90;;;;;;4986692;28;20100;-85
2024/03/20 06:34:15;;;;;;;6.53;4.73;;;3.20;99.90;;;;;;4985432;28;20475;-87
2024/03/20 06:36:41;;;;;;;12.67;4.83;;;3.30;99.90;;;;;;4982378;28;20022;-86
2024/03/20 06:39:08;;;;;;;11.37;4.17;;;3.40;99.90;;;;;;4984074;28;20117;-86
2024/03/20 06:41:34;;;;;;;10.70;3.90;;;3.40;99.90;;;;;;5000397;28;21534;-90
2024/03/20 06:44:00;;;;;;;11.23;4.70;;;3.50;99.90;;;;;;4981347;28;20037;-85
2024/03/20 06:46:26;;;;;;;16.80;5.17;;;3.60;99.90;;;;;;5000122;28;21570;-83
2024/03/20 06:48:52;;;;;;;11.50;4.97;;;3.80;99.90;;;;;;4984939;28;20050;-84
2024/03/20 06:51:22;;;;;;;14.53;4.67;;;3.90;99.90;;;;;;4984250;28;20027;-81
2024/03/20 06:53:48;;;;;;;13.97;4.20;;;4.00;99.90;;;;;;4984937;28;20081;-84
2024/03/20 06:56:13;;;;;;;13.37;5.63;;;4.10;99.90;;;;;;5002108;28;20026;-85
2024/03/20 06:58:39;;;;;;;15.30;4.43;;;4.30;99.90;;;;;;4985918;28;20092;-84
2024/03/20 07:01:04;;;;;;;14.97;3.97;;;4.40;99.90;;;;;;4985329;28;20093;-85
2024/03/20 07:03:30;;;;;;;12.23;3.60;;;4.50;99.90;;;;;;4984873;28;20648;-85
2024/03/20 07:05:57;;;;;;;9.97;4.10;;;4.70;99.90;;;;;;4986266;28;20037;-85
2024/03/20 07:08:24;;;;;;;6.90;4.13;;;4.80;99.90;;;;;;4987201;28;20022;-85
2024/03/20 07:10:50;;;;;;;9.93;4.37;;;5.00;99.90;;;;;;4986972;28;20031;-84
2024/03/20 07:13:16;;;;;;;10.10;4.70;;;5.10;99.90;;;;;;4985706;28;20471;-84
2024/03/20 07:15:43;;;;;;;9.20;3.90;;;5.30;99.90;;;;;;4986404;28;20068;-83
2024/03/20 07:18:09;;;;;;;5.87;3.90;;;5.40;99.90;;;;;;4981482;28;20023;-72
2024/03/20 07:20:35;;;;;;;8.70;3.63;;;5.50;99.90;;;;;;4979434;28;20465;-72
2024/03/20 07:23:01;;;;;;;6.00;3.37;;;5.70;99.90;;;;;;4979451;28;20041;-72
2024/03/20 07:25:27;;;;;;;10.63;3.50;;;5.80;99.90;;;;;;4981286;28;20023;-85
2024/03/20 07:27:55;;;;;;;9.90;3.77;;;6.00;99.90;;;;;;4987481;28;20023;-84
2024/03/20 07:30:21;;;;;;;7.50;3.60;;;6.20;99.90;;;;;;4986744;28;20022;-85
2024/03/20 07:32:47;;;;;;;7.43;3.70;;;6.30;99.90;;;;;;4986621;28;20045;-84
2024/03/20 07:35:13;;;;;;;6.10;3.50;;;6.40;99.90;;;;;;4987416;28;20026;-85
2024/03/20 07:37:39;;;;;;;10.47;3.97;;;6.60;99.90;;;;;;4988377;28;20998;-85
2024/03/20 07:40:07;;;;;;;7.63;3.53;;;6.70;99.90;;;;;;4986764;28;20033;-84
2024/03/20 07:42:34;;;;;;;8.67;3.40;;;6.80;99.90;;;;;;4987395;28;20414;-85
2024/03/20 07:44:59;;;;;;;9.33;3.37;;;6.90;99.90;;;;;;4987727;28;20026;-85
2024/03/20 07:47:25;;;;;;;6.17;5.10;;;7.00;99.90;;;;;;4979407;28;20034;-85
2024/03/20 07:49:51;;;;;;;11.70;3.83;;;7.20;99.90;;;;;;4987050;28;20058;-85
2024/03/20 07:52:17;;;;;;;11.50;3.43;;;7.40;99.90;;;;;;4986509;28;20767;-85
2024/03/20 07:54:43;;;;;;;7.20;3.60;;;7.50;99.90;;;;;;4984709;28;20037;-84
2024/03/20 07:57:09;;;;;;;7.63;3.60;;;7.70;99.90;;;;;;4987083;28;20054;-85
2024/03/20 07:59:34;;;;;;;11.20;3.43;;;7.90;99.90;;;;;;4988420;28;20080;-85
2024/03/20 08:02:00;;;;;;;8.00;3.10;;;8.00;99.90;;;;;;4990406;28;20109;-84
2024/03/20 08:04:25;;;;;;;7.77;3.57;;;8.10;99.90;;;;;;4990242;28;20142;-85
2024/03/20 08:06:54;;;;;;;14.40;4.37;;;8.20;99.90;;;;;;4989123;28;20085;-84
2024/03/20 08:09:20;;;;;;;12.70;4.30;;;8.40;99.90;;;;;;4987359;28;20057;-85
2024/03/20 08:11:45;;;;;;;13.40;4.47;;;8.60;99.90;;;;;;5004016;28;20022;-84
2024/03/20 08:14:13;;;;;;;11.27;4.70;;;8.70;99.90;;;;;;4989497;28;20459;-86
2024/03/20 08:16:39;;;;;;;13.27;3.80;;;8.80;99.90;;;;;;4986388;28;20104;-85
2024/03/20 08:19:07;;;;;;;12.23;3.97;;;9.00;99.90;;;;;;4986745;28;20026;-84
2024/03/20 08:21:36;;;;;;;9.90;3.90;;;9.10;99.90;;;;;;4987236;28;20053;-86
2024/03/20 08:24:04;;;;;;;14.17;4.10;;;9.10;99.90;;;;;;4985296;28;20030;-85
2024/03/20 08:26:30;;;;;;;10.97;4.57;;;9.20;99.90;;;;;;4987079;28;20605;-85
2024/03/20 08:28:56;;;;;;;13.40;4.40;;;9.30;99.90;;;;;;4989945;28;20037;-85
2024/03/20 08:31:21;;;;;;;14.43;4.37;;;9.40;99.90;;;;;;4983558;28;20031;-85
2024/03/20 08:33:48;;;;;;;16.50;4.43;;;9.50;99.90;;;;;;4983578;28;20065;-85
2024/03/20 08:36:14;;;;;;;17.27;4.37;;;9.70;99.90;;;;;;4986340;28;20132;-85
2024/03/20 08:38:40;;;;;;;15.27;4.00;;;9.80;99.90;;;;;;4986337;28;20693;-85
2024/03/20 08:41:06;;;;;;;7.93;3.60;;;9.80;99.90;;;;;;4987522;28;20112;-85
2024/03/20 08:43:33;;;;;;;8.07;3.50;;;10.00;99.90;;;;;;4987380;28;20120;-85
2024/03/20 08:46:00;;;;;;;10.83;4.13;;;10.10;99.90;;;;;;4987328;28;20073;-85
2024/03/20 08:48:26;;;;;;;11.00;3.63;;;10.20;99.90;;;;;;4987098;28;20201;-84
2024/03/20 08:50:51;;;;;;;9.27;3.97;;;10.40;99.90;;;;;;4988271;28;20050;-85
2024/03/20 08:53:18;;;;;;;7.30;3.63;;;10.50;99.90;;;;;;4988286;28;20066;-85
2024/03/20 08:55:43;;;;;;;10.87;4.50;;;10.60;99.90;;;;;;5000783;28;20030;-85
2024/03/20 08:58:09;;;;;;;12.07;4.23;;;10.80;99.90;;;;;;5002302;28;20120;-85
2024/03/20 09:00:35;;;;;;;11.57;4.40;;;10.90;99.90;;;;;;4986173;28;20407;-85
2024/03/20 09:03:02;;;;;;;12.43;5.40;;;11.10;99.90;;;;;;4985742;28;20149;-85
2024/03/20 09:05:28;;;;;;;10.27;5.73;;;11.20;99.90;;;;;;4986014;28;20740;-85
2024/03/20 09:07:54;;;;;;;11.90;5.50;;;11.30;99.90;;;;;;4985278;28;20026;-85
2024/03/20 09:10:20;;;;;;;16.23;6.13;;;11.50;99.90;;;;;;4984025;28;20026;-82
2024/03/20 09:12:45;;;;;;;12.30;6.10;;;11.80;99.90;;;;;;4985799;28;20699;-82
2024/03/20 09:15:11;;;;;;;9.27;5.25;;;11.90;99.90;;;;;;4988063;28;20026;-83
2024/03/20 09:17:36;;;;;;;9.80;5.40;;;12.00;99.90;;;;;;4984913;28;20034;-83
2024/03/20 09:20:15;;;;;;;13.20;6.28;;;12.20;99.90;;;;;;4983406;28;20027;-82
2024/03/20 09:22:46;;;;;;;12.02;6.18;;;12.40;99.90;;;;;;4983463;28;20041;-83
2024/03/20 09:25:12;;;;;;;9.38;5.82;;;12.50;99.90;;;;;;4983626;28;20026;-86
2024/03/20 09:27:37;;;;;;;14.45;5.53;;;12.70;99.90;;;;;;4988234;28;21437;-85
2024/03/20 09:30:03;;;;;;;16.23;5.75;;;12.90;99.90;;;;;;4985862;28;20018;-86
2024/03/20 09:32:30;;;;;;;10.18;4.93;;;12.90;99.90;;;;;;4983470;28;20034;-86
2024/03/20 09:34:58;;;;;;;12.27;5.20;;;13.10;99.90;;;;;;4982895;28;20073;-85
2024/03/20 09:37:26;;;;;;;15.45;4.93;;;13.30;99.90;;;;;;4984807;28;20037;-85
2024/03/20 09:39:51;;;;;;;7.55;4.28;;;13.60;99.90;;;;;;4983778;28;20023;-85
2024/03/20 09:42:18;;;;;;;10.18;4.00;;;13.70;99.90;;;;;;4983233;28;20038;-85
2024/03/20 09:44:44;;;;;;;8.93;4.10;;;14.00;99.90;;;;;;4982939;28;20168;-85
2024/03/20 09:47:11;;;;;;;9.23;4.28;;;14.10;99.90;;;;;;4982866;28;20026;-86
2024/03/20 09:49:36;;;;;;;9.90;4.03;;;14.20;99.90;;;;;;4983341;28;20026;-85
2024/03/20 09:52:02;;;;;;;4.00;2.42;;;14.30;99.90;;;;;;4982658;28;20073;-86
2024/03/20 09:54:27;;;;;;;6.75;2.45;;;14.40;99.90;;;;;;4982129;28;20366;-85
2024/03/20 09:56:53;;;;;;;9.40;2.33;;;14.40;99.90;;;;;;4980612;28;20778;-85
2024/03/20 09:59:19;;;;;;;4.30;2.03;;;14.60;99.90;;;;;;4981667;28;20487;-85
2024/03/20 10:01:44;;;;;;;4.63;1.90;;;14.90;99.90;;;;;;4982063;28;20069;-83
2024/03/20 10:04:11;;;;;;;5.10;2.00;;;15.00;99.90;;;;;;4983168;28;20026;-83
2024/03/20 10:06:39;;;;;;;11.98;2.42;;;15.20;99.90;;;;;;4981038;28;20045;-82
2024/03/20 10:09:07;;;;;;;10.02;2.10;;;15.40;99.90;;;;;;4984578;28;20030;-83
2024/03/20 10:11:34;;;;;;;4.07;1.98;;;15.50;99.90;;;;;;4997869;28;20080;-82
2024/03/20 10:14:00;;;;;;;3.95;2.00;;;15.70;99.90;;;;;;4981897;28;20121;-83
2024/03/20 10:16:28;;;;;;;4.30;2.00;;;15.80;99.90;;;;;;4998102;28;20026;-83
2024/03/20 10:18:54;;;;;;;5.95;1.90;;;15.90;99.90;;;;;;4983862;28;20031;-82
2024/03/20 10:21:19;;;;;;;4.35;1.92;;;16.00;99.90;;;;;;4981420;28;20022;-83
2024/03/20 10:23:45;;;;;;;5.63;2.17;;;16.10;99.90;;;;;;4980308;28;20031;-83
2024/03/20 10:26:12;;;;;;;7.50;2.20;;;16.20;99.90;;;;;;4996435;28;19956;-83
2024/03/20 10:28:38;;;;;;;;;;;16.40;99.90;;;;;;4981714;28;20052;-83
2024/03/20 10:31:12;;;;;;;;;;;16.50;99.90;;;;;;4982542;28;20058;-83
2024/03/20 10:33:39;;;;;;;;;;;16.70;99.90;;;;;;4979290;28;20042;-83
2024/03/20 10:36:05;;;;;;;7.20;1.80;;;16.90;99.90;;;;;;4980741;28;20066;-83
2024/03/20 10:38:33;;;;;;;7.70;1.80;;;17.00;99.90;;;;;;4982133;28;20046;-83
2024/03/20 10:40:59;;;;;;;;;;;17.10;99.90;;;;;;4982094;28;20019;-83
2024/03/20 10:43:26;;;;;;;;;;;17.10;99.90;;;;;;4981378;28;20850;-83
2024/03/20 10:45:53;;;;;;;;;;;17.20;99.90;;;;;;4981242;28;20695;-83
2024/03/20 10:48:22;;;;;;;;;;;17.50;99.90;;;;;;4984792;28;20029;-83
2024/03/20 10:50:48;;;;;;;;;;;17.70;99.90;;;;;;4980874;28;20041;-83
2024/03/20 10:53:14;;;;;;;;;;;17.80;99.90;;;;;;4981319;28;20052;-83
2024/03/20 10:55:40;;;;;;;;;;;17.90;99.90;;;;;;4980361;28;20034;-84
2024/03/20 10:58:06;;;;;;;;;;;17.90;99.90;;;;;;4990878;28;20409;-83
2024/03/20 11:00:31;;;;;;;;;;;18.00;99.90;;;;;;4980489;28;20120;-83
2024/03/20 11:02:57;;;;;;;;;;;17.90;99.90;;;;;;4981178;28;20843;-83
2024/03/20 11:05:38;;;;;;;;;;;17.80;99.90;;;;;;4980874;28;20044;-72
2024/03/20 11:08:07;;;;;;;;;;;17.60;99.90;;;;;;4979345;28;20034;-71
2024/03/20 11:10:33;;;;;;;;;;;17.60;99.90;;;;;;4979070;28;20037;-71
2024/03/20 11:12:58;;;;;;;;;;;17.70;99.90;;;;;;4978031;28;20034;-71
2024/03/20 11:15:26;;;;;;;;;;;17.90;99.90;;;;;;4979088;28;20047;-71
2024/03/20 11:17:52;;;;;;;;;;;18.10;99.90;;;;;;4978945;28;20026;-71
2024/03/20 11:20:33;;;;;;;;;;;18.30;99.90;;;;;;4979589;28;20467;-71
2024/03/20 11:23:05;;;;;;;;;;;18.30;99.90;;;;;;4979936;28;20028;-71
2024/03/20 11:25:33;;;;;;;;;;;18.30;99.90;;;;;;4978149;28;20057;-71
2024/03/20 11:27:59;;;;;;;;;;;18.50;99.90;;;;;;4978243;28;20049;-71
2024/03/20 11:30:24;;;;;;;;;;;18.50;99.90;;;;;;4979247;28;20158;-71
2024/03/20 11:32:50;;;;;;;;;;;18.40;99.90;;;;;;4978667;28;20495;-71
2024/03/20 11:35:17;;;;;;;;;;;18.30;99.90;;;;;;4982326;28;20029;-72
2024/03/20 11:37:43;;;;;;;;;;;18.30;99.90;;;;;;4982868;28;20033;-72
2024/03/20 11:40:11;;;;;;;;;;;18.30;99.90;;;;;;4982867;28;20045;-73
2024/03/20 11:42:37;;;;;;;;;;;18.30;99.90;;;;;;4982450;28;20025;-74
2024/03/20 11:45:07;;;;;;;;;;;18.60;99.90;;;;;;4981988;28;20048;-74
2024/03/20 11:47:33;;;;;;;;;;;18.70;99.90;;;;;;4982162;28;20030;-73
2024/03/20 11:49:58;;;;;;;;;;;18.70;99.90;;;;;;4982793;28;20069;-74
2024/03/20 11:52:24;;;;;;;;;;;18.70;99.90;;;;;;4983232;28;20054;-73
2024/03/20 11:54:49;;;;;;;;;;;18.90;99.90;;;;;;4982753;28;20157;-73
2024/03/20 11:57:15;;;;;;;;;;;19.00;99.90;;;;;;4983094;28;20117;-73
2024/03/20 11:59:45;;;;;;;;;;;19.10;99.90;;;;;;4983255;28;21491;-74
2024/03/20 12:02:11;;;;;;;;;;;19.00;99.90;;;;;;4982788;28;20556;-74
2024/03/20 12:04:37;;;;;;;;;;;18.80;99.90;;;;;;4983060;28;20044;-73
2024/03/20 12:07:03;;;;;;;;;;;18.50;99.90;;;;;;4979475;28;20033;-73
2024/03/20 12:09:29;;;;;;;;;;;18.40;99.90;;;;;;4981648;28;20049;-73
2024/03/20 12:11:59;;;;;;;;;;;18.50;99.90;;;;;;4982596;28;20037;-73
2024/03/20 12:14:25;;;;;;;;;;;18.60;99.90;;;;;;4982392;28;20045;-73
2024/03/20 12:16:50;;;;;;;;;;;18.70;99.90;;;;;;4981460;28;20033;-73
2024/03/20 12:19:16;;;;;;;;;;;18.70;99.90;;;;;;4982320;28;20037;-73
2024/03/20 12:21:41;;;;;;;;;;;18.80;99.90;;;;;;4982114;28;20033;-74
2024/03/20 12:24:07;;;;;;;;;;;19.00;99.90;;;;;;4981738;28;20592;-73
2024/03/20 12:26:32;;;;;;;;;;;19.10;99.90;;;;;;4981828;28;20073;-73
2024/03/20 12:28:58;;;;;;;;;;;19.40;99.90;;;;;;4982066;28;20453;-73
2024/03/20 12:31:23;;;;;;;;;;;19.40;99.90;;;;;;4980759;28;20049;-74
2024/03/20 12:33:53;;;;;;;;;;;19.10;99.90;;;;;;4982093;28;20072;-74
2024/03/20 12:36:20;;;;;;;;;;;19.10;99.90;;;;;;4980329;28;20042;-74
2024/03/20 12:38:45;;;;;;;;;;;19.10;99.90;;;;;;4981992;28;20050;-75
2024/03/20 12:41:13;;;;;;;;;;;19.00;99.90;;;;;;4981916;28;20047;-73
2024/03/20 12:43:39;;;;;;;;;;;18.80;99.90;;;;;;4981116;28;20052;-73
2024/03/20 12:46:05;;;;;;;;;;;18.70;99.90;;;;;;4979064;28;20062;-74
2024/03/20 12:48:31;;;;;;;;;;;18.50;99.90;;;;;;4980508;28;20060;-75
2024/03/20 12:50:57;;;;;;;;;;;18.30;99.90;;;;;;4979941;28;20037;-74
2024/03/20 12:53:23;;;;;;;;;;;18.20;99.90;;;;;;4979867;28;20030;-74
2024/03/20 12:55:49;;;;;;;;;;;18.10;99.90;;;;;;4978532;28;20032;-74
2024/03/20 12:58:15;;;;;;;;;;;18.00;99.90;;;;;;4980463;28;20100;-74